Terminal Aerodrome Forecast
Issued by NWS Buffalo, NY

Home | Current Version | Previous Version | Text Only | Print | Product List | Glossary On
Versions: 1 2 3 4 5 6 7 8 9 10 11 12 13 14 15 16 17 18 19 20 21 22 23 24 25 26
000
FTUS41 KBUF 251810 AAA
TAFART
TAF AMD
KART 251810Z 2518/2618 25015G25KT 2SM RA BR OVC005
     FM251900 24012KT 5SM -RA OVC015
     FM252200 24014G22KT P6SM OVC035
     FM260300 25018G26KT P6SM VCSH OVC040
     FM261200 27018G26KT P6SM BKN040=

USA.gov is the U.S. government's official web portal to all federal, state and local government web resources and services.